sensor_id;sensor_type;location;lat;lon;timestamp;P1;durP1;ratioP1;P2;durP2;ratioP2
79533;SDS011;68982;52.160;6.736;2023-09-30T00:01:45;9.05;;;3.63;;
79533;SDS011;68982;52.160;6.736;2023-09-30T00:04:10;11.00;;;3.95;;
79533;SDS011;68982;52.160;6.736;2023-09-30T00:06:36;11.85;;;4.10;;
79533;SDS011;68982;52.160;6.736;2023-09-30T00:09:01;10.02;;;4.05;;
79533;SDS011;68982;52.160;6.736;2023-09-30T00:11:28;12.90;;;4.85;;
79533;SDS011;68982;52.160;6.736;2023-09-30T00:13:53;9.93;;;3.58;;
79533;SDS011;68982;52.160;6.736;2023-09-30T00:16:19;12.15;;;3.90;;
79533;SDS011;68982;52.160;6.736;2023-09-30T00:18:44;15.25;;;4.50;;
79533;SDS011;68982;52.160;6.736;2023-09-30T00:21:10;10.38;;;4.25;;
79533;SDS011;68982;52.160;6.736;2023-09-30T00:23:36;10.80;;;3.95;;
79533;SDS011;68982;52.160;6.736;2023-09-30T00:26:01;9.85;;;3.65;;
79533;SDS011;68982;52.160;6.736;2023-09-30T00:28:27;9.95;;;3.67;;
79533;SDS011;68982;52.160;6.736;2023-09-30T00:30:53;10.68;;;3.67;;
79533;SDS011;68982;52.160;6.736;2023-09-30T00:33:18;11.07;;;4.05;;
79533;SDS011;68982;52.160;6.736;2023-09-30T00:35:44;10.18;;;4.32;;
79533;SDS011;68982;52.160;6.736;2023-09-30T00:38:09;11.67;;;3.50;;
79533;SDS011;68982;52.160;6.736;2023-09-30T00:40:35;8.68;;;4.07;;
79533;SDS011;68982;52.160;6.736;2023-09-30T00:43:00;11.98;;;4.18;;
79533;SDS011;68982;52.160;6.736;2023-09-30T00:45:26;11.20;;;3.72;;
79533;SDS011;68982;52.160;6.736;2023-09-30T00:47:52;13.63;;;4.15;;
79533;SDS011;68982;52.160;6.736;2023-09-30T00:50:19;10.95;;;3.38;;
79533;SDS011;68982;52.160;6.736;2023-09-30T00:52:45;13.48;;;4.80;;
79533;SDS011;68982;52.160;6.736;2023-09-30T00:55:13;11.50;;;3.92;;
79533;SDS011;68982;52.160;6.736;2023-09-30T00:57:40;12.88;;;5.70;;
79533;SDS011;68982;52.160;6.736;2023-09-30T01:00:06;15.85;;;5.45;;
79533;SDS011;68982;52.160;6.736;2023-09-30T01:02:36;11.65;;;4.38;;
79533;SDS011;68982;52.160;6.736;2023-09-30T01:05:03;11.57;;;3.67;;
79533;SDS011;68982;52.160;6.736;2023-09-30T01:07:30;9.80;;;4.05;;
79533;SDS011;68982;52.160;6.736;2023-09-30T01:09:55;12.27;;;4.00;;
79533;SDS011;68982;52.160;6.736;2023-09-30T01:12:21;9.85;;;4.10;;
79533;SDS011;68982;52.160;6.736;2023-09-30T01:14:46;12.40;;;4.28;;
79533;SDS011;68982;52.160;6.736;2023-09-30T01:17:12;16.25;;;4.43;;
79533;SDS011;68982;52.160;6.736;2023-09-30T01:19:38;8.63;;;4.07;;
79533;SDS011;68982;52.160;6.736;2023-09-30T01:22:04;12.85;;;4.03;;
79533;SDS011;68982;52.160;6.736;2023-09-30T01:24:30;8.00;;;3.90;;
79533;SDS011;68982;52.160;6.736;2023-09-30T01:26:56;9.05;;;4.00;;
79533;SDS011;68982;52.160;6.736;2023-09-30T01:29:22;11.98;;;3.95;;
79533;SDS011;68982;52.160;6.736;2023-09-30T01:31:48;13.02;;;3.95;;
79533;SDS011;68982;52.160;6.736;2023-09-30T01:34:15;10.10;;;4.03;;
79533;SDS011;68982;52.160;6.736;2023-09-30T01:36:41;9.85;;;4.97;;
79533;SDS011;68982;52.160;6.736;2023-09-30T01:39:08;13.68;;;5.00;;
79533;SDS011;68982;52.160;6.736;2023-09-30T01:41:37;7.68;;;4.18;;
79533;SDS011;68982;52.160;6.736;2023-09-30T01:44:03;12.65;;;4.30;;
79533;SDS011;68982;52.160;6.736;2023-09-30T01:46:29;13.55;;;5.30;;
79533;SDS011;68982;52.160;6.736;2023-09-30T01:48:54;10.75;;;4.00;;
79533;SDS011;68982;52.160;6.736;2023-09-30T01:51:20;11.07;;;4.60;;
79533;SDS011;68982;52.160;6.736;2023-09-30T01:53:46;11.68;;;4.32;;
79533;SDS011;68982;52.160;6.736;2023-09-30T01:56:12;9.90;;;4.35;;
79533;SDS011;68982;52.160;6.736;2023-09-30T01:58:37;14.60;;;5.20;;
79533;SDS011;68982;52.160;6.736;2023-09-30T02:01:03;8.68;;;4.07;;
79533;SDS011;68982;52.160;6.736;2023-09-30T02:03:29;12.65;;;4.63;;
79533;SDS011;68982;52.160;6.736;2023-09-30T02:05:55;11.02;;;3.80;;
79533;SDS011;68982;52.160;6.736;2023-09-30T02:08:23;13.43;;;4.75;;
79533;SDS011;68982;52.160;6.736;2023-09-30T02:10:49;9.00;;;3.78;;
79533;SDS011;68982;52.160;6.736;2023-09-30T02:13:16;9.50;;;4.00;;
79533;SDS011;68982;52.160;6.736;2023-09-30T02:15:41;10.52;;;4.07;;
79533;SDS011;68982;52.160;6.736;2023-09-30T02:18:06;12.85;;;4.10;;
79533;SDS011;68982;52.160;6.736;2023-09-30T02:20:32;9.63;;;4.00;;
79533;SDS011;68982;52.160;6.736;2023-09-30T02:22:57;12.07;;;4.60;;
79533;SDS011;68982;52.160;6.736;2023-09-30T02:25:24;14.48;;;4.82;;
79533;SDS011;68982;52.160;6.736;2023-09-30T02:27:49;13.00;;;4.15;;
79533;SDS011;68982;52.160;6.736;2023-09-30T02:30:15;10.48;;;4.35;;
79533;SDS011;68982;52.160;6.736;2023-09-30T02:32:41;8.32;;;3.78;;
79533;SDS011;68982;52.160;6.736;2023-09-30T02:35:07;11.88;;;4.50;;
79533;SDS011;68982;52.160;6.736;2023-09-30T02:37:35;9.02;;;3.97;;
79533;SDS011;68982;52.160;6.736;2023-09-30T02:40:04;9.43;;;4.25;;
79533;SDS011;68982;52.160;6.736;2023-09-30T02:42:40;16.05;;;4.75;;
79533;SDS011;68982;52.160;6.736;2023-09-30T02:45:06;14.27;;;4.32;;
79533;SDS011;68982;52.160;6.736;2023-09-30T02:47:33;14.20;;;4.70;;
79533;SDS011;68982;52.160;6.736;2023-09-30T02:49:59;11.10;;;4.47;;
79533;SDS011;68982;52.160;6.736;2023-09-30T02:52:25;17.90;;;5.22;;
79533;SDS011;68982;52.160;6.736;2023-09-30T02:54:50;14.45;;;5.30;;
79533;SDS011;68982;52.160;6.736;2023-09-30T02:57:16;14.15;;;5.43;;
79533;SDS011;68982;52.160;6.736;2023-09-30T02:59:43;9.50;;;4.40;;
79533;SDS011;68982;52.160;6.736;2023-09-30T03:02:09;14.48;;;4.47;;
79533;SDS011;68982;52.160;6.736;2023-09-30T03:04:35;11.15;;;4.50;;
79533;SDS011;68982;52.160;6.736;2023-09-30T03:07:01;12.60;;;4.80;;
79533;SDS011;68982;52.160;6.736;2023-09-30T03:09:27;13.15;;;4.80;;
79533;SDS011;68982;52.160;6.736;2023-09-30T03:11:52;13.50;;;5.15;;
79533;SDS011;68982;52.160;6.736;2023-09-30T03:14:21;13.48;;;4.80;;
79533;SDS011;68982;52.160;6.736;2023-09-30T03:16:46;12.73;;;5.00;;
79533;SDS011;68982;52.160;6.736;2023-09-30T03:19:12;10.90;;;4.72;;
79533;SDS011;68982;52.160;6.736;2023-09-30T03:21:37;9.60;;;4.60;;
79533;SDS011;68982;52.160;6.736;2023-09-30T03:24:03;12.15;;;5.22;;
79533;SDS011;68982;52.160;6.736;2023-09-30T03:26:29;10.65;;;4.57;;
79533;SDS011;68982;52.160;6.736;2023-09-30T03:28:55;12.05;;;5.38;;
79533;SDS011;68982;52.160;6.736;2023-09-30T03:31:21;11.40;;;4.95;;
79533;SDS011;68982;52.160;6.736;2023-09-30T03:33:47;10.23;;;4.75;;
79533;SDS011;68982;52.160;6.736;2023-09-30T03:36:19;11.32;;;5.18;;
79533;SDS011;68982;52.160;6.736;2023-09-30T03:38:45;13.73;;;5.40;;
79533;SDS011;68982;52.160;6.736;2023-09-30T03:41:10;15.32;;;5.03;;
79533;SDS011;68982;52.160;6.736;2023-09-30T03:43:38;11.77;;;5.85;;
79533;SDS011;68982;52.160;6.736;2023-09-30T03:46:06;13.82;;;5.32;;
79533;SDS011;68982;52.160;6.736;2023-09-30T03:48:32;14.07;;;5.18;;
79533;SDS011;68982;52.160;6.736;2023-09-30T03:51:07;12.23;;;5.40;;
79533;SDS011;68982;52.160;6.736;2023-09-30T03:53:40;10.32;;;4.72;;
79533;SDS011;68982;52.160;6.736;2023-09-30T03:56:14;14.60;;;5.65;;
79533;SDS011;68982;52.160;6.736;2023-09-30T03:58:40;13.03;;;5.20;;
79533;SDS011;68982;52.160;6.736;2023-09-30T04:01:07;12.30;;;5.30;;
79533;SDS011;68982;52.160;6.736;2023-09-30T04:03:33;12.52;;;5.53;;
79533;SDS011;68982;52.160;6.736;2023-09-30T04:05:59;12.35;;;5.47;;
79533;SDS011;68982;52.160;6.736;2023-09-30T04:08:27;12.38;;;5.68;;
79533;SDS011;68982;52.160;6.736;2023-09-30T04:10:53;12.85;;;5.55;;
79533;SDS011;68982;52.160;6.736;2023-09-30T04:13:19;12.48;;;5.53;;
79533;SDS011;68982;52.160;6.736;2023-09-30T04:15:46;12.18;;;5.55;;
79533;SDS011;68982;52.160;6.736;2023-09-30T04:18:12;11.80;;;5.93;;
79533;SDS011;68982;52.160;6.736;2023-09-30T04:20:37;11.57;;;5.65;;
79533;SDS011;68982;52.160;6.736;2023-09-30T04:23:05;12.43;;;5.80;;
79533;SDS011;68982;52.160;6.736;2023-09-30T04:25:32;12.18;;;5.82;;
79533;SDS011;68982;52.160;6.736;2023-09-30T04:27:57;14.52;;;5.78;;
79533;SDS011;68982;52.160;6.736;2023-09-30T04:30:22;12.45;;;5.70;;
79533;SDS011;68982;52.160;6.736;2023-09-30T04:32:48;12.68;;;6.00;;
79533;SDS011;68982;52.160;6.736;2023-09-30T04:35:13;12.57;;;5.90;;
79533;SDS011;68982;52.160;6.736;2023-09-30T04:37:39;13.88;;;6.10;;
79533;SDS011;68982;52.160;6.736;2023-09-30T04:40:05;15.02;;;6.35;;
79533;SDS011;68982;52.160;6.736;2023-09-30T04:42:44;15.43;;;6.28;;
79533;SDS011;68982;52.160;6.736;2023-09-30T04:45:11;10.32;;;5.55;;
79533;SDS011;68982;52.160;6.736;2023-09-30T04:47:37;9.93;;;5.57;;
79533;SDS011;68982;52.160;6.736;2023-09-30T04:50:05;13.40;;;5.95;;
79533;SDS011;68982;52.160;6.736;2023-09-30T04:52:32;11.85;;;5.70;;
79533;SDS011;68982;52.160;6.736;2023-09-30T04:54:58;11.35;;;5.68;;
79533;SDS011;68982;52.160;6.736;2023-09-30T04:57:25;13.95;;;7.03;;
79533;SDS011;68982;52.160;6.736;2023-09-30T04:59:51;15.70;;;6.25;;
79533;SDS011;68982;52.160;6.736;2023-09-30T05:02:16;10.77;;;6.53;;
79533;SDS011;68982;52.160;6.736;2023-09-30T05:04:41;13.18;;;6.68;;
79533;SDS011;68982;52.160;6.736;2023-09-30T05:07:09;12.68;;;6.72;;
79533;SDS011;68982;52.160;6.736;2023-09-30T05:09:35;15.75;;;6.65;;
79533;SDS011;68982;52.160;6.736;2023-09-30T05:12:01;13.07;;;6.25;;
79533;SDS011;68982;52.160;6.736;2023-09-30T05:14:27;11.40;;;6.30;;
79533;SDS011;68982;52.160;6.736;2023-09-30T05:16:54;13.43;;;6.20;;
79533;SDS011;68982;52.160;6.736;2023-09-30T05:19:19;12.60;;;6.50;;
79533;SDS011;68982;52.160;6.736;2023-09-30T05:21:45;13.70;;;6.65;;
79533;SDS011;68982;52.160;6.736;2023-09-30T05:24:11;13.20;;;6.68;;
79533;SDS011;68982;52.160;6.736;2023-09-30T05:26:36;11.37;;;6.20;;
79533;SDS011;68982;52.160;6.736;2023-09-30T05:29:01;14.82;;;7.53;;
79533;SDS011;68982;52.160;6.736;2023-09-30T05:31:27;13.35;;;6.82;;
79533;SDS011;68982;52.160;6.736;2023-09-30T05:33:52;14.67;;;6.70;;
79533;SDS011;68982;52.160;6.736;2023-09-30T05:36:18;12.07;;;6.68;;
79533;SDS011;68982;52.160;6.736;2023-09-30T05:38:45;15.50;;;6.68;;
79533;SDS011;68982;52.160;6.736;2023-09-30T05:41:10;13.73;;;7.20;;
79533;SDS011;68982;52.160;6.736;2023-09-30T05:43:36;12.40;;;7.07;;
79533;SDS011;68982;52.160;6.736;2023-09-30T05:46:01;14.65;;;6.85;;
79533;SDS011;68982;52.160;6.736;2023-09-30T05:48:27;13.02;;;7.05;;
79533;SDS011;68982;52.160;6.736;2023-09-30T05:50:53;10.07;;;6.10;;
79533;SDS011;68982;52.160;6.736;2023-09-30T05:53:18;14.55;;;6.80;;
79533;SDS011;68982;52.160;6.736;2023-09-30T05:55:43;12.68;;;7.05;;
79533;SDS011;68982;52.160;6.736;2023-09-30T05:58:12;10.75;;;7.45;;
79533;SDS011;68982;52.160;6.736;2023-09-30T06:03:05;13.63;;;6.72;;
79533;SDS011;68982;52.160;6.736;2023-09-30T06:05:31;16.73;;;7.20;;
79533;SDS011;68982;52.160;6.736;2023-09-30T06:07:57;12.23;;;7.50;;
79533;SDS011;68982;52.160;6.736;2023-09-30T06:12:51;14.68;;;7.55;;
79533;SDS011;68982;52.160;6.736;2023-09-30T06:15:21;13.90;;;6.55;;
79533;SDS011;68982;52.160;6.736;2023-09-30T06:17:51;13.48;;;7.03;;
79533;SDS011;68982;52.160;6.736;2023-09-30T06:20:17;16.60;;;6.88;;
79533;SDS011;68982;52.160;6.736;2023-09-30T06:22:43;12.40;;;7.32;;
79533;SDS011;68982;52.160;6.736;2023-09-30T06:25:10;13.65;;;7.97;;
79533;SDS011;68982;52.160;6.736;2023-09-30T06:27:37;15.55;;;8.27;;
79533;SDS011;68982;52.160;6.736;2023-09-30T06:30:03;17.57;;;8.57;;
79533;SDS011;68982;52.160;6.736;2023-09-30T06:32:30;15.52;;;8.10;;
79533;SDS011;68982;52.160;6.736;2023-09-30T06:34:55;14.90;;;7.53;;
79533;SDS011;68982;52.160;6.736;2023-09-30T06:37:21;17.73;;;7.90;;
79533;SDS011;68982;52.160;6.736;2023-09-30T06:39:46;12.68;;;7.50;;
79533;SDS011;68982;52.160;6.736;2023-09-30T06:42:13;15.15;;;8.23;;
79533;SDS011;68982;52.160;6.736;2023-09-30T06:44:38;14.20;;;8.10;;
79533;SDS011;68982;52.160;6.736;2023-09-30T06:47:03;14.30;;;8.35;;
79533;SDS011;68982;52.160;6.736;2023-09-30T06:49:29;17.85;;;8.30;;
79533;SDS011;68982;52.160;6.736;2023-09-30T06:51:55;14.48;;;9.20;;
79533;SDS011;68982;52.160;6.736;2023-09-30T06:54:21;15.90;;;10.30;;
79533;SDS011;68982;52.160;6.736;2023-09-30T06:56:46;17.10;;;9.43;;
79533;SDS011;68982;52.160;6.736;2023-09-30T06:59:11;18.33;;;9.75;;
79533;SDS011;68982;52.160;6.736;2023-09-30T07:01:37;16.83;;;9.30;;
79533;SDS011;68982;52.160;6.736;2023-09-30T07:04:02;17.40;;;9.77;;
79533;SDS011;68982;52.160;6.736;2023-09-30T07:06:28;16.75;;;9.13;;
79533;SDS011;68982;52.160;6.736;2023-09-30T07:08:53;17.63;;;8.98;;
79533;SDS011;68982;52.160;6.736;2023-09-30T07:11:28;13.85;;;8.63;;
79533;SDS011;68982;52.160;6.736;2023-09-30T07:13:54;16.80;;;9.43;;
79533;SDS011;68982;52.160;6.736;2023-09-30T07:16:19;15.15;;;9.13;;
79533;SDS011;68982;52.160;6.736;2023-09-30T07:18:45;14.93;;;9.38;;
79533;SDS011;68982;52.160;6.736;2023-09-30T07:21:11;17.92;;;8.75;;
79533;SDS011;68982;52.160;6.736;2023-09-30T07:23:37;17.90;;;9.95;;
79533;SDS011;68982;52.160;6.736;2023-09-30T07:26:02;15.60;;;9.40;;
79533;SDS011;68982;52.160;6.736;2023-09-30T07:28:28;14.18;;;8.95;;
79533;SDS011;68982;52.160;6.736;2023-09-30T07:30:57;19.35;;;10.27;;
79533;SDS011;68982;52.160;6.736;2023-09-30T07:33:22;15.40;;;9.67;;
79533;SDS011;68982;52.160;6.736;2023-09-30T07:35:48;20.00;;;10.05;;
79533;SDS011;68982;52.160;6.736;2023-09-30T07:38:14;17.30;;;10.38;;
79533;SDS011;68982;52.160;6.736;2023-09-30T07:40:39;15.30;;;9.13;;
79533;SDS011;68982;52.160;6.736;2023-09-30T07:43:05;14.98;;;9.40;;
79533;SDS011;68982;52.160;6.736;2023-09-30T07:45:30;16.77;;;9.03;;
79533;SDS011;68982;52.160;6.736;2023-09-30T07:47:56;13.95;;;8.85;;
79533;SDS011;68982;52.160;6.736;2023-09-30T07:50:23;16.20;;;10.07;;
79533;SDS011;68982;52.160;6.736;2023-09-30T07:52:49;18.40;;;9.75;;
79533;SDS011;68982;52.160;6.736;2023-09-30T07:55:14;14.55;;;9.55;;
79533;SDS011;68982;52.160;6.736;2023-09-30T07:57:40;18.88;;;10.20;;
79533;SDS011;68982;52.160;6.736;2023-09-30T08:00:08;16.30;;;9.38;;
79533;SDS011;68982;52.160;6.736;2023-09-30T08:02:35;14.52;;;9.30;;
79533;SDS011;68982;52.160;6.736;2023-09-30T08:05:01;15.00;;;9.38;;
79533;SDS011;68982;52.160;6.736;2023-09-30T08:07:27;16.90;;;10.77;;
79533;SDS011;68982;52.160;6.736;2023-09-30T08:09:52;18.67;;;12.05;;
79533;SDS011;68982;52.160;6.736;2023-09-30T08:12:18;19.58;;;9.50;;
79533;SDS011;68982;52.160;6.736;2023-09-30T08:14:44;15.45;;;9.52;;
79533;SDS011;68982;52.160;6.736;2023-09-30T08:17:10;17.35;;;9.90;;
79533;SDS011;68982;52.160;6.736;2023-09-30T08:19:36;18.35;;;10.30;;
79533;SDS011;68982;52.160;6.736;2023-09-30T08:22:01;18.02;;;9.43;;
79533;SDS011;68982;52.160;6.736;2023-09-30T08:24:28;15.98;;;9.65;;
79533;SDS011;68982;52.160;6.736;2023-09-30T08:26:54;16.88;;;10.43;;
79533;SDS011;68982;52.160;6.736;2023-09-30T08:29:21;14.15;;;9.18;;
79533;SDS011;68982;52.160;6.736;2023-09-30T08:31:47;18.70;;;9.65;;
79533;SDS011;68982;52.160;6.736;2023-09-30T08:34:12;17.00;;;9.30;;
79533;SDS011;68982;52.160;6.736;2023-09-30T08:36:39;16.17;;;8.57;;
79533;SDS011;68982;52.160;6.736;2023-09-30T08:39:05;15.15;;;8.75;;
79533;SDS011;68982;52.160;6.736;2023-09-30T08:41:32;13.35;;;8.35;;
79533;SDS011;68982;52.160;6.736;2023-09-30T08:44:02;14.40;;;8.32;;
79533;SDS011;68982;52.160;6.736;2023-09-30T08:46:32;18.67;;;8.70;;
79533;SDS011;68982;52.160;6.736;2023-09-30T08:49:02;15.57;;;8.65;;
79533;SDS011;68982;52.160;6.736;2023-09-30T08:51:28;11.48;;;7.95;;
79533;SDS011;68982;52.160;6.736;2023-09-30T08:53:54;13.02;;;8.35;;
79533;SDS011;68982;52.160;6.736;2023-09-30T08:56:24;11.80;;;7.57;;
79533;SDS011;68982;52.160;6.736;2023-09-30T08:58:55;13.30;;;7.47;;
79533;SDS011;68982;52.160;6.736;2023-09-30T09:01:23;11.63;;;7.63;;
79533;SDS011;68982;52.160;6.736;2023-09-30T09:03:50;12.27;;;7.93;;
79533;SDS011;68982;52.160;6.736;2023-09-30T09:06:18;13.07;;;7.72;;
79533;SDS011;68982;52.160;6.736;2023-09-30T09:08:44;12.95;;;7.53;;
79533;SDS011;68982;52.160;6.736;2023-09-30T09:11:10;13.50;;;7.53;;
79533;SDS011;68982;52.160;6.736;2023-09-30T09:13:48;13.10;;;7.65;;
79533;SDS011;68982;52.160;6.736;2023-09-30T09:16:21;15.63;;;7.32;;
79533;SDS011;68982;52.160;6.736;2023-09-30T09:18:48;16.88;;;7.70;;
79533;SDS011;68982;52.160;6.736;2023-09-30T09:21:14;15.20;;;7.57;;
79533;SDS011;68982;52.160;6.736;2023-09-30T09:23:42;12.63;;;7.07;;
79533;SDS011;68982;52.160;6.736;2023-09-30T09:26:27;12.70;;;7.22;;
79533;SDS011;68982;52.160;6.736;2023-09-30T09:28:58;12.07;;;7.22;;
79533;SDS011;68982;52.160;6.736;2023-09-30T09:31:28;16.30;;;7.00;;
79533;SDS011;68982;52.160;6.736;2023-09-30T09:33:57;13.45;;;6.95;;
79533;SDS011;68982;52.160;6.736;2023-09-30T09:36:37;14.20;;;6.65;;
79533;SDS011;68982;52.160;6.736;2023-09-30T09:39:04;15.48;;;7.07;;
79533;SDS011;68982;52.160;6.736;2023-09-30T09:41:29;10.45;;;6.53;;
79533;SDS011;68982;52.160;6.736;2023-09-30T09:43:55;11.20;;;6.35;;
79533;SDS011;68982;52.160;6.736;2023-09-30T09:46:24;12.45;;;6.55;;
79533;SDS011;68982;52.160;6.736;2023-09-30T09:48:51;12.27;;;6.10;;
79533;SDS011;68982;52.160;6.736;2023-09-30T09:51:18;10.75;;;5.75;;
79533;SDS011;68982;52.160;6.736;2023-09-30T09:53:46;15.48;;;6.00;;
79533;SDS011;68982;52.160;6.736;2023-09-30T09:56:14;10.65;;;5.85;;
79533;SDS011;68982;52.160;6.736;2023-09-30T09:58:41;13.10;;;6.43;;
79533;SDS011;68982;52.160;6.736;2023-09-30T10:01:09;11.98;;;6.13;;
79533;SDS011;68982;52.160;6.736;2023-09-30T10:03:35;12.88;;;6.55;;
79533;SDS011;68982;52.160;6.736;2023-09-30T10:06:02;10.38;;;6.13;;
79533;SDS011;68982;52.160;6.736;2023-09-30T10:08:33;12.18;;;6.25;;
79533;SDS011;68982;52.160;6.736;2023-09-30T10:11:03;16.10;;;6.55;;
79533;SDS011;68982;52.160;6.736;2023-09-30T10:17:08;10.57;;;6.32;;
79533;SDS011;68982;52.160;6.736;2023-09-30T10:19:19;12.20;;;6.97;;
79533;SDS011;68982;52.160;6.736;2023-09-30T10:24:43;11.40;;;6.07;;
79533;SDS011;68982;52.160;6.736;2023-09-30T10:27:41;11.00;;;5.63;;
79533;SDS011;68982;52.160;6.736;2023-09-30T10:35:18;13.95;;;6.05;;
79533;SDS011;68982;52.160;6.736;2023-09-30T10:40:46;10.05;;;4.57;;
79533;SDS011;68982;52.160;6.736;2023-09-30T10:43:45;12.82;;;5.47;;
79533;SDS011;68982;52.160;6.736;2023-09-30T10:46:29;9.82;;;4.45;;
79533;SDS011;68982;52.160;6.736;2023-09-30T10:48:55;12.65;;;4.65;;
79533;SDS011;68982;52.160;6.736;2023-09-30T10:51:21;12.00;;;4.78;;
79533;SDS011;68982;52.160;6.736;2023-09-30T10:53:47;10.63;;;4.60;;
79533;SDS011;68982;52.160;6.736;2023-09-30T10:56:26;13.43;;;5.18;;
79533;SDS011;68982;52.160;6.736;2023-09-30T10:58:58;7.72;;;4.28;;
79533;SDS011;68982;52.160;6.736;2023-09-30T11:01:24;12.05;;;3.97;;
79533;SDS011;68982;52.160;6.736;2023-09-30T11:03:50;8.85;;;3.17;;
79533;SDS011;68982;52.160;6.736;2023-09-30T11:08:53;8.82;;;2.97;;
79533;SDS011;68982;52.160;6.736;2023-09-30T11:14:01;6.90;;;2.95;;
79533;SDS011;68982;52.160;6.736;2023-09-30T11:16:27;7.60;;;3.17;;
79533;SDS011;68982;52.160;6.736;2023-09-30T11:18:53;7.32;;;2.88;;
79533;SDS011;68982;52.160;6.736;2023-09-30T11:21:19;6.47;;;2.78;;
79533;SDS011;68982;52.160;6.736;2023-09-30T11:23:44;8.68;;;2.42;;
79533;SDS011;68982;52.160;6.736;2023-09-30T11:26:10;6.35;;;2.75;;
79533;SDS011;68982;52.160;6.736;2023-09-30T11:28:43;6.60;;;3.00;;
79533;SDS011;68982;52.160;6.736;2023-09-30T11:31:13;8.20;;;2.38;;
79533;SDS011;68982;52.160;6.736;2023-09-30T11:33:52;4.20;;;1.92;;
79533;SDS011;68982;52.160;6.736;2023-09-30T11:36:19;7.82;;;2.20;;
79533;SDS011;68982;52.160;6.736;2023-09-30T11:38:46;6.90;;;2.20;;
79533;SDS011;68982;52.160;6.736;2023-09-30T11:41:13;5.47;;;2.17;;
79533;SDS011;68982;52.160;6.736;2023-09-30T11:43:38;9.00;;;2.40;;
79533;SDS011;68982;52.160;6.736;2023-09-30T11:48:31;7.70;;;2.80;;
79533;SDS011;68982;52.160;6.736;2023-09-30T11:50:58;8.20;;;2.63;;
79533;SDS011;68982;52.160;6.736;2023-09-30T11:53:26;5.75;;;2.25;;
79533;SDS011;68982;52.160;6.736;2023-09-30T11:55:52;7.53;;;2.33;;
79533;SDS011;68982;52.160;6.736;2023-09-30T11:58:21;7.25;;;2.65;;
79533;SDS011;68982;52.160;6.736;2023-09-30T12:00:47;9.23;;;2.80;;
79533;SDS011;68982;52.160;6.736;2023-09-30T12:03:15;10.50;;;2.58;;
79533;SDS011;68982;52.160;6.736;2023-09-30T12:05:41;6.95;;;2.17;;
79533;SDS011;68982;52.160;6.736;2023-09-30T12:08:06;8.05;;;3.15;;
79533;SDS011;68982;52.160;6.736;2023-09-30T12:10:32;6.72;;;2.35;;
79533;SDS011;68982;52.160;6.736;2023-09-30T12:12:58;6.65;;;2.30;;
79533;SDS011;68982;52.160;6.736;2023-09-30T12:15:23;8.45;;;2.22;;
79533;SDS011;68982;52.160;6.736;2023-09-30T12:17:48;8.30;;;2.72;;
79533;SDS011;68982;52.160;6.736;2023-09-30T12:20:14;6.88;;;2.25;;
79533;SDS011;68982;52.160;6.736;2023-09-30T12:22:41;6.28;;;2.47;;
79533;SDS011;68982;52.160;6.736;2023-09-30T12:25:07;6.20;;;2.00;;
79533;SDS011;68982;52.160;6.736;2023-09-30T12:27:33;8.68;;;2.50;;
79533;SDS011;68982;52.160;6.736;2023-09-30T12:29:59;6.35;;;2.40;;
79533;SDS011;68982;52.160;6.736;2023-09-30T12:32:25;7.30;;;2.70;;
79533;SDS011;68982;52.160;6.736;2023-09-30T12:34:51;7.22;;;2.90;;
79533;SDS011;68982;52.160;6.736;2023-09-30T12:37:18;8.80;;;3.13;;
79533;SDS011;68982;52.160;6.736;2023-09-30T12:39:43;7.47;;;2.75;;
79533;SDS011;68982;52.160;6.736;2023-09-30T12:42:10;5.72;;;2.25;;
79533;SDS011;68982;52.160;6.736;2023-09-30T12:44:37;7.50;;;2.63;;
79533;SDS011;68982;52.160;6.736;2023-09-30T12:47:03;7.90;;;2.20;;
79533;SDS011;68982;52.160;6.736;2023-09-30T12:49:30;6.50;;;2.35;;
79533;SDS011;68982;52.160;6.736;2023-09-30T12:51:55;6.15;;;2.70;;
79533;SDS011;68982;52.160;6.736;2023-09-30T12:54:22;5.90;;;2.33;;
79533;SDS011;68982;52.160;6.736;2023-09-30T12:56:48;6.47;;;2.15;;
79533;SDS011;68982;52.160;6.736;2023-09-30T12:59:15;9.13;;;2.22;;
79533;SDS011;68982;52.160;6.736;2023-09-30T13:01:42;10.57;;;2.00;;
79533;SDS011;68982;52.160;6.736;2023-09-30T13:04:08;5.80;;;2.22;;
79533;SDS011;68982;52.160;6.736;2023-09-30T13:06:34;4.53;;;1.90;;
79533;SDS011;68982;52.160;6.736;2023-09-30T13:09:00;7.60;;;1.92;;
79533;SDS011;68982;52.160;6.736;2023-09-30T13:11:27;7.50;;;2.30;;
79533;SDS011;68982;52.160;6.736;2023-09-30T13:13:52;7.40;;;2.47;;
79533;SDS011;68982;52.160;6.736;2023-09-30T13:16:18;5.68;;;2.40;;
79533;SDS011;68982;52.160;6.736;2023-09-30T13:18:43;5.97;;;2.37;;
79533;SDS011;68982;52.160;6.736;2023-09-30T13:21:08;5.70;;;1.73;;
79533;SDS011;68982;52.160;6.736;2023-09-30T13:23:37;5.13;;;2.13;;
79533;SDS011;68982;52.160;6.736;2023-09-30T13:26:03;7.15;;;2.47;;
79533;SDS011;68982;52.160;6.736;2023-09-30T13:28:28;6.60;;;1.98;;
79533;SDS011;68982;52.160;6.736;2023-09-30T13:30:54;5.43;;;2.70;;
79533;SDS011;68982;52.160;6.736;2023-09-30T13:33:19;7.43;;;2.50;;
79533;SDS011;68982;52.160;6.736;2023-09-30T13:35:46;7.75;;;2.40;;
79533;SDS011;68982;52.160;6.736;2023-09-30T13:38:11;9.15;;;2.75;;
79533;SDS011;68982;52.160;6.736;2023-09-30T13:40:37;5.07;;;2.00;;
79533;SDS011;68982;52.160;6.736;2023-09-30T13:43:06;9.55;;;2.45;;
79533;SDS011;68982;52.160;6.736;2023-09-30T13:45:31;6.50;;;2.25;;
79533;SDS011;68982;52.160;6.736;2023-09-30T13:47:57;7.18;;;2.47;;
79533;SDS011;68982;52.160;6.736;2023-09-30T13:50:22;6.82;;;2.13;;
79533;SDS011;68982;52.160;6.736;2023-09-30T13:52:48;6.97;;;2.47;;
79533;SDS011;68982;52.160;6.736;2023-09-30T13:55:13;5.85;;;2.05;;
79533;SDS011;68982;52.160;6.736;2023-09-30T13:57:44;9.13;;;2.63;;
79533;SDS011;68982;52.160;6.736;2023-09-30T14:02:36;6.55;;;2.40;;
79533;SDS011;68982;52.160;6.736;2023-09-30T14:05:02;6.70;;;2.40;;
79533;SDS011;68982;52.160;6.736;2023-09-30T14:07:29;8.45;;;2.42;;
79533;SDS011;68982;52.160;6.736;2023-09-30T14:09:55;7.15;;;2.50;;
79533;SDS011;68982;52.160;6.736;2023-09-30T14:12:20;5.93;;;2.25;;
79533;SDS011;68982;52.160;6.736;2023-09-30T14:14:45;8.68;;;2.70;;
79533;SDS011;68982;52.160;6.736;2023-09-30T14:17:11;7.50;;;2.45;;
79533;SDS011;68982;52.160;6.736;2023-09-30T14:19:37;4.93;;;2.35;;
79533;SDS011;68982;52.160;6.736;2023-09-30T14:22:04;9.52;;;2.58;;
79533;SDS011;68982;52.160;6.736;2023-09-30T14:24:30;7.50;;;2.50;;
79533;SDS011;68982;52.160;6.736;2023-09-30T14:26:57;6.72;;;2.60;;
79533;SDS011;68982;52.160;6.736;2023-09-30T14:29:22;8.23;;;2.30;;
79533;SDS011;68982;52.160;6.736;2023-09-30T14:31:47;8.45;;;2.38;;
79533;SDS011;68982;52.160;6.736;2023-09-30T14:34:13;6.75;;;2.42;;
79533;SDS011;68982;52.160;6.736;2023-09-30T14:39:05;7.33;;;2.83;;
79533;SDS011;68982;52.160;6.736;2023-09-30T14:41:30;7.72;;;2.50;;
79533;SDS011;68982;52.160;6.736;2023-09-30T14:43:57;7.10;;;2.20;;
79533;SDS011;68982;52.160;6.736;2023-09-30T14:46:23;7.43;;;2.33;;
79533;SDS011;68982;52.160;6.736;2023-09-30T14:48:48;7.38;;;2.55;;
79533;SDS011;68982;52.160;6.736;2023-09-30T14:51:14;5.53;;;2.55;;
79533;SDS011;68982;52.160;6.736;2023-09-30T14:53:40;7.50;;;2.42;;
79533;SDS011;68982;52.160;6.736;2023-09-30T14:56:14;7.33;;;2.97;;
79533;SDS011;68982;52.160;6.736;2023-09-30T14:58:41;7.15;;;2.95;;
79533;SDS011;68982;52.160;6.736;2023-09-30T15:01:10;6.53;;;2.92;;
79533;SDS011;68982;52.160;6.736;2023-09-30T15:03:35;10.48;;;2.60;;
79533;SDS011;68982;52.160;6.736;2023-09-30T15:06:04;6.45;;;2.80;;
79533;SDS011;68982;52.160;6.736;2023-09-30T15:08:30;8.82;;;3.33;;